IBE1284 LJLJ-LQSA
Flight info
| Callsign | IBE1284 |
|---|---|
| Flight time | 0h 38m |
| Altitude | 27000 |
| Route | LUPIX2E LUPIX DCT GORPA DCT BOSNA |
| Aircraft | A321/M-SDE3FGHIRWY/LB1 |
Departure
| Time | 2026-04-28 15:45 |
|---|---|
| Airport | Ljubljana Jože Pučnik Airport (LJLJ) |
Arrival
| Time | 2026-04-28 16:24 |
|---|---|
| Airport | Sarajevo International Airport (LQSA) |
| Time | Latitude | Longitude | Altitude | Speed | Heading |
|---|---|---|---|---|---|
| 2026-04-28 15:15 | 46.23024 | 14.45416 | 1264 ft | 0 kts | 36° |
| 2026-04-28 15:36 | 46.23022 | 14.45414 | 1264 ft | 1 kts | 36° |
| 2026-04-28 15:36 | 46.23008 | 14.45400 | 1267 ft | 3 kts | 36° |
| 2026-04-28 15:36 | 46.22995 | 14.45386 | 1264 ft | 0 kts | 30° |
| 2026-04-28 15:36 | 46.22979 | 14.45378 | 1264 ft | 0 kts | 347° |
| 2026-04-28 15:37 | 46.22964 | 14.45390 | 1264 ft | 0 kts | 311° |
| 2026-04-28 15:37 | 46.22955 | 14.45406 | 1264 ft | 1 kts | 306° |
| 2026-04-28 15:37 | 46.22953 | 14.45410 | 1264 ft | 0 kts | 306° |
| 2026-04-28 15:40 | 46.22955 | 14.45407 | 1264 ft | 1 kts | 306° |
| 2026-04-28 15:40 | 46.22961 | 14.45396 | 1264 ft | 2 kts | 307° |
| 2026-04-28 15:40 | 46.22971 | 14.45375 | 1264 ft | 3 kts | 307° |
| 2026-04-28 15:41 | 46.22988 | 14.45344 | 1264 ft | 5 kts | 308° |
| 2026-04-28 15:41 | 46.23012 | 14.45299 | 1268 ft | 7 kts | 305° |
| 2026-04-28 15:41 | 46.23044 | 14.45231 | 1269 ft | 10 kts | 301° |
| 2026-04-28 15:41 | 46.22997 | 14.45141 | 1265 ft | 15 kts | 213° |
| 2026-04-28 15:42 | 46.22977 | 14.45023 | 1275 ft | 11 kts | 313° |
| 2026-04-28 15:42 | 46.23040 | 14.44912 | 1270 ft | 17 kts | 308° |
| 2026-04-28 15:42 | 46.23116 | 14.44762 | 1271 ft | 20 kts | 306° |
| 2026-04-28 15:42 | 46.23206 | 14.44581 | 1277 ft | 24 kts | 307° |
| 2026-04-28 15:43 | 46.23314 | 14.44376 | 1286 ft | 23 kts | 307° |
| 2026-04-28 15:43 | 46.23391 | 14.44226 | 1289 ft | 9 kts | 306° |
| 2026-04-28 15:43 | 46.23398 | 14.44145 | 1291 ft | 8 kts | 249° |
| 2026-04-28 15:43 | 46.23396 | 14.44138 | 1291 ft | 0 kts | 243° |
| 2026-04-28 15:44 | 46.23388 | 14.44118 | 1291 ft | 6 kts | 232° |
| 2026-04-28 15:44 | 46.23340 | 14.44078 | 1291 ft | 10 kts | 190° |
| 2026-04-28 15:44 | 46.23261 | 14.44091 | 1290 ft | 13 kts | 167° |
| 2026-04-28 15:44 | 46.23183 | 14.44164 | 1286 ft | 15 kts | 126° |
| 2026-04-28 15:45 | 46.23059 | 14.44412 | 1279 ft | 65 kts | 126° |
| 2026-04-28 15:45 | 46.22629 | 14.45254 | 1263 ft | 140 kts | 127° |
| 2026-04-28 15:45 | 46.21939 | 14.46602 | 1422 ft | 181 kts | 126° |
| 2026-04-28 15:45 | 46.21219 | 14.48039 | 2313 ft | 181 kts | 126° |
| 2026-04-28 15:46 | 46.20443 | 14.49542 | 2993 ft | 193 kts | 127° |
| 2026-04-28 15:46 | 46.19615 | 14.51141 | 3431 ft | 207 kts | 126° |
| 2026-04-28 15:46 | 46.18708 | 14.52904 | 3793 ft | 229 kts | 126° |
| 2026-04-28 15:46 | 46.17720 | 14.54825 | 4257 ft | 247 kts | 126° |
| 2026-04-28 15:47 | 46.16665 | 14.56876 | 4839 ft | 260 kts | 126° |
| 2026-04-28 15:47 | 46.15576 | 14.59002 | 5583 ft | 266 kts | 126° |
| 2026-04-28 15:47 | 46.14479 | 14.61130 | 6392 ft | 269 kts | 126° |
| 2026-04-28 15:47 | 46.13352 | 14.63310 | 7183 ft | 272 kts | 126° |
| 2026-04-28 15:48 | 46.12211 | 14.65519 | 7928 ft | 277 kts | 127° |
| 2026-04-28 15:48 | 46.11051 | 14.67764 | 8671 ft | 281 kts | 127° |
| 2026-04-28 15:48 | 46.09872 | 14.70044 | 9388 ft | 285 kts | 127° |
| 2026-04-28 15:48 | 46.08678 | 14.72349 | 10108 ft | 289 kts | 127° |
| 2026-04-28 15:49 | 46.07470 | 14.74678 | 10849 ft | 292 kts | 128° |
| 2026-04-28 15:49 | 46.06244 | 14.77053 | 11548 ft | 297 kts | 128° |
| 2026-04-28 15:49 | 46.05053 | 14.79466 | 12121 ft | 303 kts | 127° |
| 2026-04-28 15:49 | 46.03820 | 14.81977 | 12650 ft | 311 kts | 127° |
| 2026-04-28 15:50 | 46.02561 | 14.84534 | 13245 ft | 315 kts | 127° |
| 2026-04-28 15:50 | 46.01287 | 14.87123 | 13840 ft | 319 kts | 127° |
| 2026-04-28 15:50 | 45.99994 | 14.89748 | 14457 ft | 323 kts | 127° |
| 2026-04-28 15:50 | 45.98679 | 14.92405 | 15068 ft | 326 kts | 127° |
| 2026-04-28 15:51 | 45.97360 | 14.95080 | 15645 ft | 329 kts | 127° |
| 2026-04-28 15:51 | 45.96034 | 14.97773 | 16202 ft | 332 kts | 127° |
| 2026-04-28 15:51 | 45.94688 | 15.00495 | 16745 ft | 336 kts | 127° |
| 2026-04-28 15:51 | 45.93324 | 15.03243 | 17272 ft | 339 kts | 127° |
| 2026-04-28 15:52 | 45.91965 | 15.05982 | 17797 ft | 343 kts | 127° |
| 2026-04-28 15:52 | 45.90571 | 15.08781 | 18316 ft | 346 kts | 128° |
| 2026-04-28 15:52 | 45.89145 | 15.11639 | 18672 ft | 357 kts | 127° |
| 2026-04-28 15:52 | 45.87675 | 15.14583 | 18903 ft | 369 kts | 127° |
| 2026-04-28 15:53 | 45.86151 | 15.17633 | 19105 ft | 383 kts | 127° |
| 2026-04-28 15:53 | 45.84573 | 15.20789 | 19292 ft | 395 kts | 127° |
| 2026-04-28 15:53 | 45.82947 | 15.24047 | 19469 ft | 407 kts | 127° |
| 2026-04-28 15:53 | 45.81275 | 15.27395 | 19641 ft | 418 kts | 127° |
| 2026-04-28 15:54 | 45.79563 | 15.30808 | 19940 ft | 425 kts | 127° |
| 2026-04-28 15:54 | 45.77828 | 15.34262 | 20337 ft | 429 kts | 127° |
| 2026-04-28 15:54 | 45.76019 | 15.37603 | 20751 ft | 432 kts | 130° |
| 2026-04-28 15:54 | 45.74108 | 15.41016 | 21161 ft | 435 kts | 130° |
| 2026-04-28 15:55 | 45.72236 | 15.44366 | 21539 ft | 439 kts | 130° |
| 2026-04-28 15:55 | 45.70320 | 15.47785 | 21910 ft | 442 kts | 130° |
| 2026-04-28 15:55 | 45.68387 | 15.51232 | 22270 ft | 445 kts | 130° |
| 2026-04-28 15:55 | 45.66438 | 15.54706 | 22622 ft | 449 kts | 130° |
| 2026-04-28 15:56 | 45.64477 | 15.58195 | 22989 ft | 451 kts | 130° |
| 2026-04-28 15:56 | 45.62512 | 15.61686 | 23423 ft | 451 kts | 130° |
| 2026-04-28 15:56 | 45.60540 | 15.65177 | 23846 ft | 452 kts | 131° |
| 2026-04-28 15:56 | 45.58563 | 15.68672 | 24253 ft | 452 kts | 131° |
| 2026-04-28 15:57 | 45.56580 | 15.72176 | 24682 ft | 452 kts | 131° |
| 2026-04-28 15:57 | 45.54605 | 15.75671 | 25087 ft | 453 kts | 131° |
| 2026-04-28 15:57 | 45.52624 | 15.79159 | 25512 ft | 452 kts | 131° |
| 2026-04-28 15:57 | 45.50637 | 15.82647 | 25937 ft | 452 kts | 131° |
| 2026-04-28 15:58 | 45.48656 | 15.86121 | 26348 ft | 452 kts | 131° |
| 2026-04-28 15:58 | 45.46693 | 15.89561 | 26725 ft | 452 kts | 131° |
| 2026-04-28 15:58 | 45.44702 | 15.93049 | 27038 ft | 454 kts | 131° |
| 2026-04-28 15:58 | 45.42713 | 15.96536 | 27104 ft | 451 kts | 131° |
| 2026-04-28 15:59 | 45.40732 | 16.00013 | 27095 ft | 451 kts | 131° |
| 2026-04-28 15:59 | 45.39420 | 16.02309 | 27089 ft | 451 kts | 131° |
| 2026-04-28 15:59 | 45.36791 | 16.06903 | 27088 ft | 452 kts | 131° |
| 2026-04-28 15:59 | 45.34806 | 16.10369 | 27085 ft | 452 kts | 131° |
| 2026-04-28 16:00 | 45.32817 | 16.13835 | 27083 ft | 451 kts | 131° |
| 2026-04-28 16:00 | 45.30832 | 16.17286 | 27079 ft | 451 kts | 131° |
| 2026-04-28 16:00 | 45.28838 | 16.20747 | 27081 ft | 452 kts | 131° |
| 2026-04-28 16:00 | 45.27519 | 16.23036 | 27078 ft | 451 kts | 131° |
| 2026-04-28 16:01 | 45.25529 | 16.26486 | 27080 ft | 451 kts | 131° |
| 2026-04-28 16:01 | 45.23538 | 16.29930 | 27081 ft | 451 kts | 131° |
| 2026-04-28 16:01 | 45.20904 | 16.34484 | 27081 ft | 450 kts | 131° |
| 2026-04-28 16:01 | 45.19559 | 16.36813 | 27078 ft | 450 kts | 131° |
| 2026-04-28 16:02 | 45.17595 | 16.40207 | 27077 ft | 450 kts | 131° |
| 2026-04-28 16:02 | 45.15606 | 16.43635 | 27078 ft | 451 kts | 131° |
| 2026-04-28 16:02 | 45.13611 | 16.47066 | 27077 ft | 450 kts | 131° |
| 2026-04-28 16:02 | 45.11616 | 16.50500 | 27082 ft | 451 kts | 131° |
| 2026-04-28 16:03 | 45.09623 | 16.53928 | 27081 ft | 450 kts | 131° |
| 2026-04-28 16:03 | 45.07634 | 16.57349 | 27081 ft | 450 kts | 131° |
| 2026-04-28 16:03 | 45.05654 | 16.60774 | 27080 ft | 450 kts | 131° |
| 2026-04-28 16:03 | 45.03666 | 16.64199 | 27080 ft | 449 kts | 131° |
| 2026-04-28 16:04 | 45.01670 | 16.67620 | 27080 ft | 450 kts | 131° |
| 2026-04-28 16:04 | 44.99701 | 16.70976 | 27079 ft | 449 kts | 131° |
| 2026-04-28 16:04 | 44.97703 | 16.74381 | 27083 ft | 449 kts | 131° |
| 2026-04-28 16:04 | 44.95706 | 16.77780 | 27080 ft | 448 kts | 131° |
| 2026-04-28 16:05 | 44.93717 | 16.81163 | 27080 ft | 448 kts | 131° |
| 2026-04-28 16:05 | 44.91725 | 16.84551 | 27082 ft | 448 kts | 131° |
| 2026-04-28 16:05 | 44.89735 | 16.87936 | 27080 ft | 448 kts | 131° |
| 2026-04-28 16:05 | 44.87735 | 16.91322 | 27081 ft | 448 kts | 131° |
| 2026-04-28 16:06 | 44.85740 | 16.94704 | 26804 ft | 448 kts | 131° |
| 2026-04-28 16:06 | 44.83745 | 16.98086 | 26514 ft | 449 kts | 131° |
| 2026-04-28 16:06 | 44.81769 | 17.01419 | 26257 ft | 449 kts | 131° |
| 2026-04-28 16:06 | 44.79767 | 17.04797 | 26001 ft | 449 kts | 131° |
| 2026-04-28 16:07 | 44.77770 | 17.08173 | 25514 ft | 447 kts | 131° |
| 2026-04-28 16:07 | 44.75780 | 17.11525 | 24869 ft | 446 kts | 131° |
| 2026-04-28 16:07 | 44.71777 | 17.18227 | 23453 ft | 448 kts | 131° |
| 2026-04-28 16:08 | 44.69780 | 17.21591 | 22751 ft | 447 kts | 131° |
| 2026-04-28 16:08 | 44.67784 | 17.24951 | 22097 ft | 445 kts | 131° |
| 2026-04-28 16:08 | 44.65796 | 17.28277 | 21472 ft | 442 kts | 131° |
| 2026-04-28 16:09 | 44.61859 | 17.34817 | 20301 ft | 434 kts | 131° |
| 2026-04-28 16:09 | 44.59920 | 17.38041 | 19725 ft | 430 kts | 131° |
| 2026-04-28 16:09 | 44.58027 | 17.41192 | 19164 ft | 425 kts | 131° |
| 2026-04-28 16:10 | 44.54249 | 17.47485 | 18047 ft | 416 kts | 131° |
| 2026-04-28 16:10 | 44.52386 | 17.50578 | 17528 ft | 412 kts | 131° |
| 2026-04-28 16:10 | 44.48722 | 17.56642 | 16451 ft | 404 kts | 131° |
| 2026-04-28 16:11 | 44.45145 | 17.62554 | 15449 ft | 395 kts | 131° |
| 2026-04-28 16:11 | 44.41620 | 17.68378 | 14394 ft | 389 kts | 131° |
| 2026-04-28 16:12 | 44.38144 | 17.74106 | 13311 ft | 382 kts | 132° |
| 2026-04-28 16:12 | 44.36211 | 17.76602 | 12767 ft | 376 kts | 147° |
| 2026-04-28 16:13 | 44.31645 | 17.79946 | 11741 ft | 366 kts | 154° |
| 2026-04-28 16:13 | 44.29417 | 17.81501 | 11384 ft | 356 kts | 154° |
| 2026-04-28 16:13 | 44.25226 | 17.84482 | 11253 ft | 319 kts | 154° |
| 2026-04-28 16:14 | 44.21478 | 17.87170 | 10971 ft | 292 kts | 153° |
| 2026-04-28 16:14 | 44.17900 | 17.89736 | 10129 ft | 286 kts | 153° |
| 2026-04-28 16:15 | 44.14395 | 17.92248 | 9196 ft | 285 kts | 153° |
| 2026-04-28 16:15 | 44.12630 | 17.93509 | 8746 ft | 284 kts | 153° |
| 2026-04-28 16:15 | 44.10896 | 17.94750 | 8471 ft | 275 kts | 153° |
| 2026-04-28 16:16 | 44.07524 | 17.97163 | 7863 ft | 269 kts | 153° |
| 2026-04-28 16:16 | 44.05897 | 17.98326 | 7604 ft | 261 kts | 153° |
| 2026-04-28 16:17 | 44.02760 | 18.00594 | 7201 ft | 248 kts | 152° |
| 2026-04-28 16:17 | 44.01222 | 18.01536 | 7113 ft | 236 kts | 160° |
| 2026-04-28 16:17 | 43.99706 | 18.02252 | 6943 ft | 225 kts | 161° |
| 2026-04-28 16:17 | 43.98223 | 18.02940 | 6706 ft | 223 kts | 161° |
| 2026-04-28 16:18 | 43.96771 | 18.03617 | 6369 ft | 222 kts | 161° |
| 2026-04-28 16:18 | 43.95303 | 18.04302 | 6077 ft | 222 kts | 161° |
| 2026-04-28 16:18 | 43.93847 | 18.04992 | 5826 ft | 217 kts | 159° |
| 2026-04-28 16:18 | 43.92584 | 18.06022 | 5611 ft | 204 kts | 135° |
| 2026-04-28 16:19 | 43.91761 | 18.07528 | 5497 ft | 196 kts | 121° |
| 2026-04-28 16:19 | 43.91114 | 18.09185 | 5338 ft | 192 kts | 116° |
| 2026-04-28 16:19 | 43.90537 | 18.10807 | 5131 ft | 183 kts | 115° |
| 2026-04-28 16:19 | 43.89983 | 18.12371 | 4894 ft | 178 kts | 115° |
| 2026-04-28 16:20 | 43.89438 | 18.13891 | 4658 ft | 174 kts | 115° |
| 2026-04-28 16:20 | 43.88896 | 18.15395 | 4421 ft | 174 kts | 115° |
| 2026-04-28 16:20 | 43.88354 | 18.16888 | 4176 ft | 173 kts | 115° |
| 2026-04-28 16:20 | 43.87819 | 18.18360 | 3939 ft | 172 kts | 115° |
| 2026-04-28 16:21 | 43.87285 | 18.19833 | 3716 ft | 167 kts | 115° |
| 2026-04-28 16:21 | 43.86780 | 18.21218 | 3484 ft | 154 kts | 116° |
| 2026-04-28 16:21 | 43.86307 | 18.22521 | 3250 ft | 148 kts | 115° |
| 2026-04-28 16:21 | 43.85856 | 18.23795 | 3039 ft | 149 kts | 112° |
| 2026-04-28 16:22 | 43.85438 | 18.25111 | 2852 ft | 150 kts | 110° |
| 2026-04-28 16:22 | 43.84970 | 18.26403 | 2624 ft | 150 kts | 117° |
| 2026-04-28 16:22 | 43.84484 | 18.27678 | 2416 ft | 149 kts | 114° |
| 2026-04-28 16:22 | 43.84013 | 18.28955 | 2206 ft | 147 kts | 114° |
| 2026-04-28 16:23 | 43.83549 | 18.30216 | 1971 ft | 145 kts | 115° |
| 2026-04-28 16:23 | 43.83096 | 18.31442 | 1773 ft | 144 kts | 114° |
| 2026-04-28 16:23 | 43.82651 | 18.32638 | 1683 ft | 126 kts | 117° |
| 2026-04-28 16:23 | 43.82325 | 18.33507 | 1699 ft | 76 kts | 119° |
| 2026-04-28 16:24 | 43.82142 | 18.33993 | 1710 ft | 49 kts | 117° |
| 2026-04-28 16:24 | 43.81998 | 18.34381 | 1717 ft | 37 kts | 120° |
| 2026-04-28 16:24 | 43.81942 | 18.34566 | 1719 ft | 15 kts | 67° |
| 2026-04-28 16:24 | 43.82032 | 18.34624 | 1720 ft | 16 kts | 355° |
| 2026-04-28 16:25 | 43.82124 | 18.34527 | 1716 ft | 19 kts | 290° |
| 2026-04-28 16:25 | 43.82175 | 18.34385 | 1713 ft | 17 kts | 296° |
| 2026-04-28 16:25 | 43.82233 | 18.34227 | 1709 ft | 20 kts | 297° |
| 2026-04-28 16:25 | 43.82299 | 18.34050 | 1703 ft | 22 kts | 297° |
| 2026-04-28 16:26 | 43.82373 | 18.33856 | 1694 ft | 23 kts | 297° |
| 2026-04-28 16:26 | 43.82429 | 18.33703 | 1697 ft | 13 kts | 297° |
| 2026-04-28 16:26 | 43.82464 | 18.33612 | 1692 ft | 2 kts | 297° |
| 2026-04-28 16:26 | 43.82467 | 18.33604 | 1691 ft | 0 kts | 297° |
| 2026-04-28 16:28 | 43.82467 | 18.33603 | 1691 ft | 1 kts | 301° |
| 2026-04-28 16:28 | 43.82469 | 18.33600 | 1691 ft | 0 kts | 312° |
| 2026-04-28 16:28 | 43.82470 | 18.33600 | 1691 ft | 1 kts | 312° |
| 2026-04-28 16:29 | 43.82526 | 18.33618 | 1691 ft | 3 kts | 25° |
| 2026-04-28 16:29 | 43.82538 | 18.33627 | 1692 ft | 0 kts | 27° |